createdAt,value
2018-12-15T00:00:08.064Z,0.00
2018-12-15T00:01:08.046Z,0.00
2018-12-15T00:02:08.053Z,0.00
2018-12-15T00:03:08.022Z,0.00
2018-12-15T00:04:16.710Z,0.00
2018-12-15T00:06:12.518Z,0.00
2018-12-15T00:07:12.472Z,0.00
2018-12-15T00:08:12.492Z,0.00
2018-12-15T00:09:12.478Z,0.00
2018-12-15T00:10:12.426Z,0.00
2018-12-15T00:11:12.412Z,0.00
2018-12-15T00:12:12.410Z,0.00
2018-12-15T00:13:12.401Z,0.00
2018-12-15T00:14:12.412Z,0.00
2018-12-15T00:15:12.381Z,0.00
2018-12-15T00:16:12.370Z,0.00
2018-12-15T00:17:12.345Z,0.00
2018-12-15T00:18:12.347Z,0.00
2018-12-15T00:19:12.316Z,0.00
2018-12-15T00:20:12.317Z,0.00
2018-12-15T00:21:12.304Z,0.00
2018-12-15T00:22:12.280Z,0.00
2018-12-15T00:23:12.276Z,0.00
2018-12-15T00:24:12.287Z,0.00
2018-12-15T00:25:12.270Z,0.00
2018-12-15T00:26:12.239Z,0.00
2018-12-15T00:27:12.212Z,0.00
2018-12-15T00:28:12.206Z,0.00
2018-12-15T00:29:12.193Z,0.00
2018-12-15T00:30:12.183Z,0.00
2018-12-15T00:31:12.208Z,0.00
2018-12-15T00:32:12.153Z,0.00
2018-12-15T00:33:12.146Z,0.00
2018-12-15T00:34:12.151Z,0.00
2018-12-15T00:35:12.116Z,0.00
2018-12-15T00:36:12.115Z,0.00
2018-12-15T00:37:20.811Z,0.00
2018-12-15T00:39:25.590Z,0.00
2018-12-15T00:40:25.280Z,0.00
2018-12-15T00:42:20.639Z,0.00
2018-12-15T00:43:20.596Z,0.00
2018-12-15T00:44:20.600Z,0.00
2018-12-15T00:45:20.581Z,0.00
2018-12-15T00:46:20.576Z,0.00
2018-12-15T00:47:20.575Z,0.00
2018-12-15T00:48:20.687Z,0.00
2018-12-15T00:49:20.559Z,0.00
2018-12-15T00:50:20.524Z,0.00
2018-12-15T00:51:20.493Z,0.00
2018-12-15T00:52:20.524Z,0.00
2018-12-15T00:53:20.516Z,0.00
2018-12-15T00:54:20.479Z,0.00
2018-12-15T00:55:20.449Z,0.00
2018-12-15T00:56:20.475Z,0.00
2018-12-15T00:57:20.430Z,0.00
2018-12-15T00:58:20.413Z,0.00
2018-12-15T00:59:20.433Z,0.00
2018-12-15T01:00:20.443Z,0.00
2018-12-15T01:01:20.405Z,0.00
2018-12-15T01:02:20.371Z,0.00
2018-12-15T01:03:20.354Z,0.00
2018-12-15T01:04:20.347Z,0.00
2018-12-15T01:05:20.348Z,0.00
2018-12-15T01:06:20.310Z,0.00
2018-12-15T01:07:20.349Z,0.00
2018-12-15T01:08:20.300Z,0.00
2018-12-15T01:09:20.281Z,0.00
2018-12-15T01:10:20.263Z,0.00
2018-12-15T01:11:20.285Z,0.00
2018-12-15T01:12:20.250Z,0.00
2018-12-15T01:13:20.225Z,0.00
2018-12-15T01:14:20.226Z,0.00
2018-12-15T01:15:20.255Z,0.00
2018-12-15T01:16:20.216Z,0.00
2018-12-15T01:17:20.699Z,0.00
2018-12-15T01:18:20.215Z,0.00
2018-12-15T01:19:20.154Z,0.00
2018-12-15T01:20:20.151Z,0.00
2018-12-15T01:21:20.176Z,0.00
2018-12-15T01:22:20.116Z,0.00
2018-12-15T01:23:20.113Z,0.00
2018-12-15T01:24:20.100Z,0.00
2018-12-15T01:25:20.116Z,0.00
2018-12-15T01:26:20.081Z,0.00
2018-12-15T01:27:28.884Z,0.00
2018-12-15T01:29:32.297Z,0.00
2018-12-15T01:30:33.346Z,0.00
2018-12-15T01:32:28.979Z,0.00
2018-12-15T01:33:28.946Z,0.00
2018-12-15T01:34:28.946Z,0.00
2018-12-15T01:35:28.932Z,0.00
2018-12-15T01:36:28.909Z,0.00
2018-12-15T01:37:28.911Z,0.00
2018-12-15T01:38:28.890Z,0.00
2018-12-15T01:39:28.869Z,0.00
2018-12-15T01:40:28.874Z,0.00
2018-12-15T01:41:28.852Z,0.00
2018-12-15T01:42:28.839Z,0.00
2018-12-15T01:43:28.815Z,0.00
2018-12-15T01:44:28.800Z,0.00
2018-12-15T01:45:28.801Z,0.00
2018-12-15T01:46:28.772Z,0.00
2018-12-15T01:47:28.767Z,0.00
2018-12-15T01:48:28.759Z,0.00
2018-12-15T01:49:28.766Z,0.00
2018-12-15T01:50:28.909Z,0.00
2018-12-15T01:51:28.712Z,0.00
2018-12-15T01:52:28.708Z,0.00
2018-12-15T01:53:28.690Z,0.00
2018-12-15T01:54:28.705Z,0.00
2018-12-15T01:55:28.681Z,0.00
2018-12-15T01:56:28.700Z,0.00
2018-12-15T01:57:28.642Z,0.00
2018-12-15T01:58:28.628Z,0.00
2018-12-15T01:59:28.611Z,0.00
2018-12-15T02:00:37.416Z,0.00
2018-12-15T02:02:33.109Z,0.00
2018-12-15T02:03:42.677Z,0.00
2018-12-15T02:05:37.548Z,0.00
2018-12-15T02:06:37.521Z,0.00
2018-12-15T02:07:37.504Z,0.00
2018-12-15T02:08:37.482Z,0.00
2018-12-15T02:09:37.477Z,0.00
2018-12-15T02:10:37.464Z,0.00
2018-12-15T02:11:37.501Z,0.00
2018-12-15T02:12:37.441Z,0.00
2018-12-15T02:13:37.415Z,0.00
2018-12-15T02:14:37.391Z,0.00
2018-12-15T02:15:37.408Z,0.00
2018-12-15T02:16:37.370Z,0.00
2018-12-15T02:17:37.384Z,0.00
2018-12-15T02:18:37.348Z,0.00
2018-12-15T02:19:37.339Z,0.00
2018-12-15T02:20:37.323Z,0.00
2018-12-15T02:21:37.343Z,0.00
2018-12-15T02:22:37.297Z,0.00
2018-12-15T02:23:37.308Z,0.00
2018-12-15T02:24:37.282Z,0.00
2018-12-15T02:25:37.290Z,0.00
2018-12-15T02:26:37.280Z,0.00
2018-12-15T02:27:37.250Z,0.00
2018-12-15T02:28:37.256Z,0.00
2018-12-15T02:29:37.216Z,0.00
2018-12-15T02:30:37.240Z,0.00
2018-12-15T02:31:37.228Z,0.00
2018-12-15T02:32:37.242Z,0.00
2018-12-15T02:33:37.169Z,0.00
2018-12-15T02:34:37.151Z,0.00
2018-12-15T02:35:37.142Z,0.00
2018-12-15T02:36:37.130Z,0.00
2018-12-15T02:37:37.126Z,0.00
2018-12-15T02:38:37.154Z,0.00
2018-12-15T02:39:37.112Z,0.00
2018-12-15T02:40:37.084Z,0.00
2018-12-15T02:41:37.122Z,0.00
2018-12-15T02:42:37.052Z,0.00
2018-12-15T02:43:37.045Z,0.00
2018-12-15T02:44:37.058Z,0.00
2018-12-15T02:45:37.019Z,0.00
2018-12-15T02:46:37.008Z,0.00
2018-12-15T02:47:41.397Z,0.00
2018-12-15T02:48:37.007Z,0.00
2018-12-15T02:49:36.996Z,0.00
2018-12-15T02:50:36.964Z,0.00
2018-12-15T02:51:36.948Z,0.00
2018-12-15T02:52:36.953Z,0.00
2018-12-15T02:53:36.918Z,0.00
2018-12-15T02:54:36.910Z,0.00
2018-12-15T02:55:36.920Z,0.00
2018-12-15T02:56:36.885Z,0.00
2018-12-15T02:57:36.877Z,0.00
2018-12-15T03:14:22.055Z,0.00
2018-12-15T03:15:21.976Z,0.00
2018-12-15T03:16:21.982Z,0.00
2018-12-15T03:17:21.957Z,0.00
2018-12-15T03:18:21.951Z,0.00
2018-12-15T03:19:21.922Z,0.00
2018-12-15T03:20:21.963Z,0.00
2018-12-15T03:21:21.875Z,0.00
2018-12-15T03:22:21.858Z,0.00
2018-12-15T03:23:21.847Z,0.00
2018-12-15T03:24:21.828Z,0.00
2018-12-15T03:25:21.848Z,0.00
2018-12-15T03:26:21.846Z,0.00
2018-12-15T03:27:21.824Z,0.00
2018-12-15T03:28:21.779Z,0.00
2018-12-15T03:29:21.784Z,0.00
2018-12-15T03:30:21.762Z,0.00
2018-12-15T03:31:21.752Z,0.00
2018-12-15T03:32:21.777Z,0.00
2018-12-15T03:33:21.742Z,0.00
2018-12-15T03:34:21.762Z,0.00
2018-12-15T03:35:21.726Z,0.00
2018-12-15T03:36:21.676Z,0.00
2018-12-15T03:37:21.670Z,0.00
2018-12-15T03:38:21.661Z,0.00
2018-12-15T03:39:21.657Z,0.00
2018-12-15T03:40:21.636Z,0.00
2018-12-15T03:41:21.636Z,0.00
2018-12-15T03:42:21.611Z,0.00
2018-12-15T03:43:21.608Z,0.00
2018-12-15T03:44:21.579Z,0.00
2018-12-15T03:45:21.679Z,0.00
2018-12-15T03:46:21.550Z,0.00
2018-12-15T03:47:21.554Z,0.00
2018-12-15T03:48:21.599Z,0.00
2018-12-15T03:49:21.568Z,0.00
2018-12-15T03:50:21.507Z,0.00
2018-12-15T03:51:21.510Z,0.00
2018-12-15T03:52:21.491Z,0.00
2018-12-15T03:53:21.478Z,0.00
2018-12-15T03:54:21.496Z,0.00
2018-12-15T03:55:21.469Z,0.00
2018-12-15T03:57:42.502Z,0.00
2018-12-15T03:58:42.510Z,0.00
2018-12-15T03:59:50.165Z,0.00
2018-12-15T04:01:47.025Z,0.00
2018-12-15T04:02:46.990Z,0.00
2018-12-15T04:03:46.989Z,0.00
2018-12-15T04:04:47.101Z,0.00
2018-12-15T04:05:46.955Z,0.00
2018-12-15T04:06:46.926Z,0.00
2018-12-15T04:07:46.924Z,0.00
2018-12-15T04:08:46.918Z,0.00
2018-12-15T04:09:46.923Z,0.00
2018-12-15T04:10:46.905Z,0.00
2018-12-15T04:11:46.908Z,0.00
2018-12-15T04:12:46.853Z,0.00
2018-12-15T04:13:46.839Z,0.00
2018-12-15T04:14:46.829Z,0.00
2018-12-15T04:15:46.838Z,0.00
2018-12-15T04:16:46.805Z,0.00
2018-12-15T04:17:46.808Z,0.00
2018-12-15T04:18:46.782Z,0.00
2018-12-15T04:19:46.797Z,0.00
2018-12-15T04:20:46.756Z,0.00
2018-12-15T04:21:46.782Z,0.00
2018-12-15T04:22:46.731Z,0.00
2018-12-15T04:23:46.725Z,0.00
2018-12-15T04:24:46.711Z,0.00
2018-12-15T04:25:46.694Z,0.00
2018-12-15T04:26:46.701Z,0.00
2018-12-15T04:27:46.675Z,0.00
2018-12-15T04:28:46.704Z,0.00
2018-12-15T04:29:46.650Z,0.00
2018-12-15T04:30:46.646Z,0.00
2018-12-15T04:31:46.638Z,0.00
2018-12-15T04:32:46.670Z,0.00
2018-12-15T04:33:46.613Z,0.00
2018-12-15T04:34:46.623Z,0.00
2018-12-15T04:35:46.613Z,0.00
2018-12-15T04:36:46.596Z,0.00
2018-12-15T04:37:46.556Z,0.00
2018-12-15T04:38:46.575Z,0.00
2018-12-15T04:39:46.540Z,0.00
2018-12-15T04:40:46.553Z,0.00
2018-12-15T04:41:46.509Z,0.00
2018-12-15T04:42:46.517Z,0.00
2018-12-15T04:43:46.512Z,0.00
2018-12-15T04:44:46.460Z,0.00
2018-12-15T04:45:46.453Z,0.00
2018-12-15T04:46:46.444Z,0.00
2018-12-15T04:47:46.426Z,0.00
2018-12-15T04:48:46.425Z,0.00
2018-12-15T04:49:46.404Z,0.00
2018-12-15T04:50:46.395Z,0.00
2018-12-15T04:51:46.391Z,0.00
2018-12-15T04:52:46.398Z,0.00
2018-12-15T04:53:46.381Z,0.00
2018-12-15T04:54:46.373Z,0.00
2018-12-15T04:55:46.335Z,0.00
2018-12-15T04:56:46.319Z,0.00
2018-12-15T04:57:46.307Z,0.00
2018-12-15T04:58:46.299Z,0.00
2018-12-15T04:59:56.067Z,0.00
2018-12-15T05:01:51.812Z,0.00
2018-12-15T05:03:02.395Z,0.00
2018-12-15T05:04:45.381Z,0.00
2018-12-15T05:05:45.427Z,0.00
2018-12-15T05:06:45.359Z,0.00
2018-12-15T05:07:45.493Z,0.00
2018-12-15T05:08:45.318Z,0.00
2018-12-15T05:09:45.284Z,0.00
2018-12-15T05:10:45.277Z,0.00
2018-12-15T05:11:45.274Z,0.00
2018-12-15T05:12:45.276Z,0.00
2018-12-15T05:13:45.308Z,0.00
2018-12-15T05:14:45.231Z,0.00
2018-12-15T05:15:45.350Z,0.00
2018-12-15T05:16:45.202Z,0.00
2018-12-15T05:17:45.212Z,0.00
2018-12-15T05:18:45.201Z,0.00
2018-12-15T05:19:45.171Z,0.00
2018-12-15T05:20:45.164Z,0.00
2018-12-15T05:21:45.162Z,0.00
2018-12-15T05:22:45.146Z,0.00
2018-12-15T05:23:45.178Z,0.00
2018-12-15T05:24:45.130Z,0.00
2018-12-15T05:25:45.091Z,0.00
2018-12-15T05:26:45.100Z,0.00
2018-12-15T05:27:45.070Z,0.00
2018-12-15T05:28:45.086Z,0.00
2018-12-15T05:29:45.047Z,0.00
2018-12-15T05:30:45.035Z,0.00
2018-12-15T05:31:45.033Z,0.00
2018-12-15T05:32:45.011Z,0.00
2018-12-15T05:33:45.003Z,0.00
2018-12-15T05:34:44.980Z,0.00
2018-12-15T05:35:53.771Z,0.00
2018-12-15T05:37:38.406Z,0.00
2018-12-15T05:38:38.362Z,0.00
2018-12-15T05:39:38.345Z,0.00
2018-12-15T05:40:38.321Z,0.00
2018-12-15T05:41:38.309Z,0.00
2018-12-15T05:42:38.326Z,0.00
2018-12-15T05:43:38.315Z,0.00
2018-12-15T05:44:38.264Z,0.00
2018-12-15T05:45:38.268Z,0.00
2018-12-15T05:46:38.263Z,0.00
2018-12-15T05:47:38.343Z,0.00
2018-12-15T05:48:38.232Z,0.00
2018-12-15T05:49:38.208Z,0.00
2018-12-15T05:50:38.199Z,0.00
2018-12-15T05:51:38.179Z,0.00
2018-12-15T05:52:38.202Z,0.00
2018-12-15T05:53:38.186Z,0.00
2018-12-15T05:54:38.151Z,0.00
2018-12-15T05:55:38.139Z,0.00
2018-12-15T05:56:38.154Z,0.00
2018-12-15T05:57:38.121Z,0.00
2018-12-15T05:58:38.134Z,0.00
2018-12-15T05:59:38.087Z,0.00
2018-12-15T06:00:38.090Z,0.00
2018-12-15T06:01:38.075Z,0.00
2018-12-15T06:02:38.052Z,0.00
2018-12-15T06:03:38.039Z,0.00
2018-12-15T06:04:38.017Z,0.00
2018-12-15T06:05:38.018Z,0.00
2018-12-15T06:06:37.998Z,0.00
2018-12-15T06:07:38.011Z,0.00
2018-12-15T06:08:37.980Z,0.00
2018-12-15T06:09:37.975Z,0.00
2018-12-15T06:10:37.952Z,0.00
2018-12-15T06:11:37.937Z,0.00
2018-12-15T06:12:37.929Z,0.00
2018-12-15T06:13:37.907Z,0.00
2018-12-15T06:14:37.910Z,0.00
2018-12-15T06:15:37.889Z,0.00
2018-12-15T06:16:37.874Z,0.00
2018-12-15T06:17:37.861Z,0.00
2018-12-15T06:18:37.874Z,0.00
2018-12-15T06:19:37.849Z,0.00
2018-12-15T06:20:37.819Z,0.00
2018-12-15T06:21:37.811Z,0.00
2018-12-15T06:22:37.857Z,0.00
2018-12-15T06:23:37.820Z,0.00
2018-12-15T06:24:37.790Z,0.00
2018-12-15T06:25:37.790Z,0.00
2018-12-15T06:26:46.699Z,0.00
2018-12-15T06:28:42.341Z,0.00
2018-12-15T06:29:51.880Z,0.00
2018-12-15T06:31:46.669Z,0.00
2018-12-15T06:32:46.664Z,0.00
2018-12-15T06:33:46.645Z,0.00
2018-12-15T06:34:46.645Z,0.00
2018-12-15T06:35:46.644Z,0.00
2018-12-15T06:36:46.604Z,0.00
2018-12-15T06:37:46.759Z,0.00
2018-12-15T06:38:46.576Z,0.00
2018-12-15T06:39:46.770Z,0.00
2018-12-15T06:40:46.543Z,0.00
2018-12-15T06:41:46.528Z,0.00
2018-12-15T06:42:46.526Z,0.00
2018-12-15T06:43:46.513Z,0.00
2018-12-15T06:44:46.544Z,0.00
2018-12-15T06:45:46.491Z,0.00
2018-12-15T06:46:46.478Z,0.00
2018-12-15T06:47:46.476Z,0.00
2018-12-15T06:48:46.468Z,0.00
2018-12-15T06:49:46.438Z,0.00
2018-12-15T06:50:46.437Z,0.00
2018-12-15T06:51:46.413Z,0.00
2018-12-15T06:52:46.399Z,0.00
2018-12-15T06:53:46.411Z,0.00
2018-12-15T06:54:46.394Z,0.00
2018-12-15T06:55:46.399Z,0.00
2018-12-15T06:56:46.340Z,0.00
2018-12-15T06:57:46.367Z,4.00
2018-12-15T06:58:46.354Z,4.00
2018-12-15T06:59:46.317Z,4.00
2018-12-15T07:00:46.303Z,0.00
2018-12-15T07:01:46.317Z,0.00
2018-12-15T07:02:46.275Z,4.00
2018-12-15T07:03:46.328Z,4.00
2018-12-15T07:04:46.273Z,4.00
2018-12-15T07:05:55.027Z,4.00
2018-12-15T07:07:50.870Z,4.00
2018-12-15T07:08:50.828Z,4.00
2018-12-15T07:09:50.878Z,8.00
2018-12-15T07:10:50.858Z,8.00
2018-12-15T07:11:50.734Z,4.00
2018-12-15T07:12:50.825Z,8.00
2018-12-15T07:13:50.836Z,8.00
2018-12-15T07:14:50.679Z,8.00
2018-12-15T07:15:50.659Z,12.00
2018-12-15T07:16:50.666Z,8.00
2018-12-15T07:17:50.569Z,8.00
2018-12-15T07:18:50.559Z,12.00
2018-12-15T07:19:50.564Z,8.00
2018-12-15T07:20:50.589Z,12.00
2018-12-15T07:21:50.598Z,12.00
2018-12-15T07:22:50.542Z,12.00
2018-12-15T07:23:50.506Z,16.00
2018-12-15T07:24:50.497Z,16.00
2018-12-15T07:25:50.508Z,16.00
2018-12-15T07:26:50.602Z,16.00
2018-12-15T07:27:50.530Z,20.00
2018-12-15T07:28:50.478Z,20.00
2018-12-15T07:29:50.490Z,20.00
2018-12-15T07:30:50.443Z,24.00
2018-12-15T07:31:50.476Z,24.00
2018-12-15T07:32:50.414Z,24.00
2018-12-15T07:33:50.461Z,28.00
2018-12-15T07:34:50.415Z,28.00
2018-12-15T07:35:50.433Z,28.00
2018-12-15T07:36:50.368Z,28.00
2018-12-15T07:37:50.374Z,32.00
2018-12-15T07:38:50.355Z,32.00
2018-12-15T07:39:50.343Z,32.00
2018-12-15T07:40:50.306Z,36.00
2018-12-15T07:41:50.290Z,36.00
2018-12-15T07:42:50.356Z,36.00
2018-12-15T07:43:50.302Z,40.00
2018-12-15T07:44:50.309Z,44.00
2018-12-15T07:45:50.276Z,44.00
2018-12-15T07:46:50.239Z,44.00
2018-12-15T07:47:50.292Z,48.00
2018-12-15T07:48:51.471Z,48.00
2018-12-15T07:49:50.228Z,48.00
2018-12-15T07:50:50.233Z,48.00
2018-12-15T07:51:50.170Z,52.00
2018-12-15T07:52:50.324Z,52.00
2018-12-15T07:53:50.206Z,56.00
2018-12-15T07:54:50.183Z,60.00
2018-12-15T07:55:50.202Z,56.00
2018-12-15T07:57:00.316Z,56.00
2018-12-15T07:59:02.570Z,64.00
2018-12-15T07:59:54.906Z,64.00
2018-12-15T08:00:54.974Z,64.00
2018-12-15T08:01:54.656Z,64.00
2018-12-15T08:02:54.981Z,68.00
2018-12-15T08:03:54.558Z,68.00
2018-12-15T08:04:54.548Z,72.00
2018-12-15T08:05:54.549Z,72.00
2018-12-15T08:08:26.872Z,80.00
2018-12-15T08:11:06.580Z,84.00
2018-12-15T08:12:06.452Z,88.00
2018-12-15T08:13:06.201Z,92.00
2018-12-15T08:14:06.261Z,92.00
2018-12-15T08:15:06.074Z,96.00
2018-12-15T08:16:06.073Z,92.00
2018-12-15T08:17:06.031Z,96.00
2018-12-15T08:18:06.037Z,100.00
2018-12-15T08:19:06.049Z,100.00
2018-12-15T08:20:06.003Z,104.00
2018-12-15T08:21:05.998Z,104.00
2018-12-15T08:22:05.960Z,108.00
2018-12-15T08:23:05.984Z,108.00
2018-12-15T08:24:05.959Z,108.00
2018-12-15T08:25:05.941Z,112.00
2018-12-15T08:26:14.992Z,112.00
2018-12-15T08:28:10.813Z,116.00
2018-12-15T08:29:10.689Z,112.00
2018-12-15T08:30:10.801Z,116.00
2018-12-15T08:31:10.616Z,120.00
2018-12-15T08:32:10.626Z,120.00
2018-12-15T08:33:10.674Z,128.00
2018-12-15T08:34:10.593Z,128.00
2018-12-15T08:35:10.586Z,132.00
2018-12-15T08:36:10.540Z,136.00
2018-12-15T08:37:10.553Z,136.00
2018-12-15T08:38:10.603Z,140.00
2018-12-15T08:39:10.527Z,144.00
2018-12-15T08:40:19.651Z,152.00
2018-12-15T08:42:25.219Z,152.00
2018-12-15T08:43:24.722Z,156.00
2018-12-15T08:45:21.127Z,164.00
2018-12-15T08:46:20.512Z,164.00
2018-12-15T08:47:29.180Z,164.00
2018-12-15T08:49:25.072Z,164.00
2018-12-15T08:51:58.238Z,164.00
2018-12-15T08:52:57.779Z,160.00
2018-12-15T08:53:57.783Z,160.00
2018-12-15T08:54:57.782Z,160.00
2018-12-15T08:55:57.717Z,164.00
2018-12-15T08:56:57.726Z,164.00
2018-12-15T08:57:57.665Z,168.00
2018-12-15T08:58:57.717Z,168.00
2018-12-15T09:01:30.134Z,172.00
2018-12-15T09:02:29.964Z,172.00
2018-12-15T09:03:29.994Z,172.00
2018-12-15T09:04:29.980Z,176.00
2018-12-15T09:05:30.325Z,176.00
2018-12-15T09:06:29.772Z,180.00
2018-12-15T09:07:29.779Z,180.00
2018-12-15T09:08:29.727Z,176.00
2018-12-15T09:09:29.936Z,176.00
2018-12-15T09:10:29.787Z,180.00
2018-12-15T09:11:29.715Z,184.00
2018-12-15T09:12:29.677Z,184.00
2018-12-15T09:13:29.718Z,188.00
2018-12-15T09:14:29.720Z,188.00
2018-12-15T09:15:29.741Z,188.00
2018-12-15T09:16:29.645Z,192.00
2018-12-15T09:17:29.726Z,188.00
2018-12-15T09:18:29.601Z,188.00
2018-12-15T09:19:29.649Z,196.00
2018-12-15T09:20:29.656Z,196.00
2018-12-15T09:21:29.605Z,196.00
2018-12-15T09:22:29.609Z,200.00
2018-12-15T09:23:29.642Z,204.00
2018-12-15T09:24:29.526Z,200.00
2018-12-15T09:25:29.594Z,204.00
2018-12-15T09:26:38.632Z,200.00
2018-12-15T09:28:41.990Z,208.00
2018-12-15T09:29:34.054Z,208.00
2018-12-15T09:30:34.350Z,208.00
2018-12-15T09:31:34.208Z,212.00
2018-12-15T09:32:33.967Z,212.00
2018-12-15T09:33:33.956Z,216.00
2018-12-15T09:34:33.963Z,208.00
2018-12-15T09:35:33.974Z,216.00
2018-12-15T09:36:33.937Z,212.00
2018-12-15T09:37:33.932Z,212.00
2018-12-15T09:38:33.890Z,208.00
2018-12-15T09:39:33.885Z,212.00
2018-12-15T09:40:33.917Z,212.00
2018-12-15T09:41:33.909Z,212.00
2018-12-15T09:42:33.904Z,212.00
2018-12-15T09:43:33.869Z,216.00
2018-12-15T09:44:33.824Z,212.00
2018-12-15T09:45:33.861Z,208.00
2018-12-15T09:46:33.834Z,208.00
2018-12-15T09:47:33.831Z,216.00
2018-12-15T09:48:43.198Z,212.00
2018-12-15T09:50:38.273Z,220.00
2018-12-15T09:51:38.253Z,224.00
2018-12-15T09:52:38.221Z,228.00
2018-12-15T09:53:38.378Z,228.00
2018-12-15T09:54:38.312Z,228.00
2018-12-15T09:55:38.188Z,228.00
2018-12-15T09:56:38.332Z,228.00
2018-12-15T09:57:38.138Z,232.00
2018-12-15T09:58:38.226Z,216.00
2018-12-15T09:59:46.871Z,260.00
2018-12-15T10:01:43.088Z,256.00
2018-12-15T10:02:42.627Z,252.00
2018-12-15T10:03:42.570Z,256.00
2018-12-15T10:04:42.564Z,256.00
2018-12-15T10:05:42.598Z,260.00
2018-12-15T10:06:42.510Z,256.00
2018-12-15T10:07:42.499Z,256.00
2018-12-15T10:08:42.491Z,256.00
2018-12-15T10:09:42.498Z,256.00
2018-12-15T10:10:42.481Z,256.00
2018-12-15T10:11:42.518Z,256.00
2018-12-15T10:12:42.544Z,256.00
2018-12-15T10:13:42.434Z,252.00
2018-12-15T10:14:42.442Z,256.00
2018-12-15T10:15:42.417Z,256.00
2018-12-15T10:16:42.450Z,256.00
2018-12-15T10:17:42.374Z,260.00
2018-12-15T10:18:42.462Z,260.00
2018-12-15T10:19:42.482Z,260.00
2018-12-15T10:20:42.375Z,264.00
2018-12-15T10:21:42.371Z,208.00
2018-12-15T10:22:42.628Z,236.00
2018-12-15T10:23:43.031Z,232.00
2018-12-15T10:24:42.441Z,236.00
2018-12-15T10:25:42.660Z,240.00
2018-12-15T10:26:42.411Z,240.00
2018-12-15T10:27:43.658Z,240.00
2018-12-15T10:28:46.385Z,244.00
2018-12-15T10:29:42.647Z,248.00
2018-12-15T10:30:42.305Z,252.00
2018-12-15T10:31:42.285Z,256.00
2018-12-15T10:32:42.270Z,256.00
2018-12-15T10:33:45.826Z,260.00
2018-12-15T10:35:03.284Z,260.00
2018-12-15T10:37:34.746Z,256.00
2018-12-15T10:38:29.184Z,244.00
2018-12-15T10:39:28.945Z,252.00
2018-12-15T10:40:29.381Z,260.00
2018-12-15T10:41:27.357Z,280.00
2018-12-15T10:42:28.253Z,260.00
2018-12-15T10:43:29.808Z,264.00
2018-12-15T10:44:28.189Z,268.00
2018-12-15T10:52:58.022Z,272.00
2018-12-15T10:53:59.808Z,272.00
2018-12-15T10:56:42.147Z,264.00
2018-12-15T10:57:42.399Z,276.00
2018-12-15T10:58:42.132Z,288.00
2018-12-15T10:59:42.176Z,276.00
2018-12-15T11:00:42.192Z,272.00
2018-12-15T11:01:42.256Z,272.00
2018-12-15T11:02:42.024Z,272.00
2018-12-15T11:03:42.059Z,272.00
2018-12-15T11:04:42.047Z,272.00
2018-12-15T11:05:42.063Z,284.00
2018-12-15T11:06:41.974Z,272.00
2018-12-15T11:07:41.984Z,276.00
2018-12-15T11:08:41.959Z,268.00
2018-12-15T11:09:41.930Z,272.00
2018-12-15T11:10:41.917Z,272.00
2018-12-15T11:11:54.851Z,276.00
2018-12-15T11:13:46.472Z,288.00
2018-12-15T11:16:26.627Z,288.00
2018-12-15T11:19:05.020Z,288.00
2018-12-15T11:20:04.999Z,296.00
2018-12-15T11:21:13.799Z,296.00
2018-12-15T11:23:17.330Z,308.00
2018-12-15T11:24:09.625Z,308.00
2018-12-15T11:25:09.376Z,312.00
2018-12-15T11:26:09.355Z,320.00
2018-12-15T11:27:09.358Z,320.00
2018-12-15T11:28:09.331Z,328.00
2018-12-15T11:29:09.336Z,332.00
2018-12-15T11:30:09.291Z,340.00
2018-12-15T11:31:09.308Z,340.00
2018-12-15T11:32:09.269Z,340.00
2018-12-15T11:33:09.301Z,332.00
2018-12-15T11:34:09.265Z,360.00
2018-12-15T11:35:09.239Z,360.00
2018-12-15T11:36:09.237Z,348.00
2018-12-15T11:37:09.290Z,360.00
2018-12-15T11:38:09.220Z,420.00
2018-12-15T11:39:09.215Z,420.00
2018-12-15T11:40:17.849Z,428.00
2018-12-15T11:42:13.792Z,440.00
2018-12-15T11:43:13.667Z,444.00
2018-12-15T11:44:13.649Z,448.00
2018-12-15T11:45:13.665Z,448.00
2018-12-15T11:46:13.654Z,460.00
2018-12-15T11:47:13.611Z,476.00
2018-12-15T11:48:13.721Z,464.00
2018-12-15T11:49:13.584Z,476.00
2018-12-15T11:50:13.615Z,468.00
2018-12-15T11:51:13.581Z,472.00
2018-12-15T11:52:13.551Z,480.00
2018-12-15T11:53:13.534Z,476.00
2018-12-15T11:54:13.521Z,476.00
2018-12-15T11:55:13.514Z,472.00
2018-12-15T11:56:13.524Z,472.00
2018-12-15T11:57:13.490Z,468.00
2018-12-15T11:58:13.622Z,464.00
2018-12-15T12:00:53.066Z,468.00
2018-12-15T12:01:53.191Z,464.00
2018-12-15T12:04:09.020Z,468.00
2018-12-15T12:05:08.922Z,460.00
2018-12-15T12:06:08.914Z,456.00
2018-12-15T12:07:08.950Z,464.00
2018-12-15T12:08:08.881Z,452.00
2018-12-15T12:09:08.855Z,464.00
2018-12-15T12:10:08.912Z,456.00
2018-12-15T12:11:08.830Z,468.00
2018-12-15T12:12:08.825Z,452.00
2018-12-15T12:13:08.872Z,452.00
2018-12-15T12:14:08.874Z,448.00
2018-12-15T12:15:08.833Z,448.00
2018-12-15T12:16:08.788Z,452.00
2018-12-15T12:17:08.762Z,444.00
2018-12-15T12:18:08.764Z,440.00
2018-12-15T12:19:08.789Z,428.00
2018-12-15T12:20:08.761Z,436.00
2018-12-15T12:21:08.731Z,436.00
2018-12-15T12:22:08.722Z,440.00
2018-12-15T12:23:08.687Z,436.00
2018-12-15T12:24:08.691Z,440.00
2018-12-15T12:25:08.662Z,444.00
2018-12-15T12:26:08.659Z,408.00
2018-12-15T12:27:08.643Z,464.00
2018-12-15T12:28:08.642Z,472.00
2018-12-15T12:29:08.624Z,472.00
2018-12-15T12:30:08.610Z,476.00
2018-12-15T12:31:08.597Z,484.00
2018-12-15T12:32:08.583Z,492.00
2018-12-15T12:33:08.611Z,496.00
2018-12-15T12:34:08.597Z,496.00
2018-12-15T12:35:08.570Z,500.00
2018-12-15T12:36:08.589Z,504.00
2018-12-15T12:37:08.633Z,512.00
2018-12-15T12:38:08.521Z,516.00
2018-12-15T12:39:08.534Z,496.00
2018-12-15T12:40:08.537Z,496.00
2018-12-15T12:41:08.519Z,500.00
2018-12-15T12:42:08.514Z,472.00
2018-12-15T12:43:08.512Z,500.00
2018-12-15T12:44:08.463Z,512.00
2018-12-15T12:45:08.444Z,516.00
2018-12-15T12:46:08.443Z,488.00
2018-12-15T12:47:08.431Z,456.00
2018-12-15T12:48:08.407Z,484.00
2018-12-15T12:49:08.396Z,492.00
2018-12-15T12:50:08.409Z,492.00
2018-12-15T12:51:08.411Z,460.00
2018-12-15T12:52:08.379Z,472.00
2018-12-15T12:53:08.725Z,440.00
2018-12-15T12:54:08.437Z,440.00
2018-12-15T12:55:08.427Z,480.00
2018-12-15T12:56:08.327Z,460.00
2018-12-15T12:57:08.310Z,472.00
2018-12-15T12:58:08.286Z,460.00
2018-12-15T12:59:17.077Z,484.00
2018-12-15T13:01:13.178Z,472.00
2018-12-15T13:02:12.752Z,424.00
2018-12-15T13:05:00.433Z,456.00
2018-12-15T13:05:52.321Z,412.00
2018-12-15T13:06:52.192Z,416.00
2018-12-15T13:09:31.360Z,424.00
2018-12-15T13:10:31.554Z,424.00
2018-12-15T13:11:31.324Z,412.00
2018-12-15T13:12:31.497Z,424.00
2018-12-15T13:13:31.283Z,364.00
2018-12-15T13:14:31.256Z,412.00
2018-12-15T13:15:31.326Z,408.00
2018-12-15T13:16:31.253Z,396.00
2018-12-15T13:17:31.219Z,384.00
2018-12-15T13:18:31.200Z,384.00
2018-12-15T13:19:31.223Z,376.00
2018-12-15T13:20:31.210Z,372.00
2018-12-15T13:21:31.181Z,400.00
2018-12-15T13:22:31.191Z,376.00
2018-12-15T13:23:31.142Z,380.00
2018-12-15T13:24:31.125Z,344.00
2018-12-15T13:25:31.158Z,380.00
2018-12-15T13:26:40.545Z,348.00
2018-12-15T13:28:36.633Z,340.00
2018-12-15T13:29:46.498Z,328.00
2018-12-15T13:31:42.137Z,284.00
2018-12-15T13:32:42.089Z,272.00
2018-12-15T13:33:42.079Z,260.00
2018-12-15T13:34:42.066Z,248.00
2018-12-15T13:35:42.063Z,240.00
2018-12-15T13:36:42.058Z,236.00
2018-12-15T13:37:42.025Z,244.00
2018-12-15T13:38:42.207Z,256.00
2018-12-15T13:39:42.003Z,268.00
2018-12-15T13:42:14.214Z,272.00
2018-12-15T13:43:14.476Z,256.00
2018-12-15T13:44:14.129Z,272.00
2018-12-15T13:45:14.295Z,272.00
2018-12-15T13:46:14.080Z,276.00
2018-12-15T13:48:46.368Z,244.00
2018-12-15T13:49:46.209Z,240.00
2018-12-15T13:50:46.256Z,220.00
2018-12-15T13:51:46.208Z,200.00
2018-12-15T13:52:46.172Z,196.00
2018-12-15T13:53:56.817Z,200.00
2018-12-15T13:55:50.666Z,220.00
2018-12-15T13:56:50.574Z,208.00
2018-12-15T13:57:50.642Z,200.00
2018-12-15T13:58:50.579Z,192.00
2018-12-15T13:59:50.505Z,204.00
2018-12-15T14:00:50.501Z,188.00
2018-12-15T14:01:50.506Z,208.00
2018-12-15T14:02:50.471Z,204.00
2018-12-15T14:03:50.449Z,204.00
2018-12-15T14:04:50.478Z,200.00
2018-12-15T14:05:50.450Z,212.00
2018-12-15T14:06:50.415Z,208.00
2018-12-15T14:07:50.417Z,216.00
2018-12-15T14:08:50.386Z,208.00
2018-12-15T14:09:50.408Z,196.00
2018-12-15T14:10:50.382Z,212.00
2018-12-15T14:11:50.361Z,212.00
2018-12-15T14:12:50.350Z,204.00